DL5TW-13 Weather Reports


time (UTC)temp
C
wind
direction
speed
KPH
gust
KPH
rain 1hr
cm
rain 24hr
cm
rain mn
cm
humidity
%
barometer
mb
20260507081729 10 247 0.0 0.0 0.05 14.55 0.00 92 1006.3
20260507081229 10 270 0.0 0.0 0.05 14.55 0.00 92 1006.3
20260507080728 10 270 0.0 0.0 0.05 14.55 0.00 92 1006.1
20260507080228 10 337 0.0 0.0 0.05 14.55 0.00 93 1006.0
20260507075728 10 292 0.0 0.0 0.05 14.55 0.00 93 1006.0
20260507075228 10 292 0.0 0.0 0.05 14.55 0.00 93 1006.0
20260507074727 10 67 0.0 0.0 0.10 14.55 0.00 93 1005.9
20260507074227 10 90 0.0 0.0 0.10 14.55 0.00 93 1005.9
20260507073727 10 270 0.0 0.0 0.10 14.55 0.00 93 1005.8
20260507073226 10 337 0.0 0.0 0.10 14.55 0.00 93 1005.7
20260507072726 10 112 0.0 0.0 0.05 14.50 0.00 93 1005.7
20260507072226 10 112 0.0 0.0 0.05 14.50 0.00 93 1005.7
20260507071726 10 90 0.0 0.0 0.05 14.50 0.00 93 1005.6
20260507071225 10 67 0.0 0.0 0.10 14.50 0.00 93 1005.4
20260507070725 9 67 0.0 0.0 0.10 14.50 0.00 93 1005.4
20260507070225 9 225 0.0 0.0 0.10 14.50 0.00 93 1005.3
20260507065724 8 225 0.0 0.0 0.10 14.50 0.00 93 1005.4
20260507065224 8 225 0.0 0.0 0.05 14.43 0.00 93 1005.4
20260507064724 8 247 0.0 0.0 0.05 14.43 0.00 93 1005.4
20260507064224 8 247 0.0 0.0 0.05 14.43 0.00 93 1005.2
20260507063723 8 225 0.0 0.0 0.05 14.43 0.00 93 1005.1
20260507063223 8 225 0.0 0.0 0.05 14.43 0.00 93 1005.3
20260507062723 8 247 0.0 0.0 0.05 14.43 0.00 93 1005.2
20260507062222 8 202 0.0 0.0 0.10 14.43 0.00 93 1005.1
20260507061722 8 202 0.0 0.0 0.05 14.38 0.00 93 1005.1
20260507061222 8 247 0.0 0.0 0.05 14.38 0.00 93 1005.1
20260507060722 8 270 0.0 0.0 0.05 14.38 0.00 93 1004.9
20260507060221 8 270 0.0 0.0 0.05 14.38 0.00 92 1005.1
20260507055721 8 270 0.0 0.0 0.10 14.38 0.00 92 1005.0
20260507055221 8 270 0.0 0.0 0.20 14.38 0.00 92 1004.9
20260507054720 8 270 0.0 0.0 0.20 14.38 0.00 92 1004.8
20260507054220 8 270 0.0 0.0 0.20 14.38 0.00 92 1004.9
20260507053720 8 270 0.0 0.0 0.20 14.38 0.00 92 1005.0
20260507053220 8 225 0.0 0.0 0.20 14.38 0.00 92 1005.0
20260507052719 8 270 0.0 0.0 0.15 14.33 0.00 92 1004.8
20260507052219 8 270 0.0 0.0 0.20 14.33 0.00 92 1004.8
20260507051719 8 337 0.0 0.0 0.20 14.33 0.00 92 1004.5
20260507051218 8 112 0.0 0.0 0.20 14.33 0.00 92 1004.6
20260507050718 8 112 0.0 0.0 0.25 14.33 0.00 92 1004.5
20260507050218 8 112 0.0 0.0 0.25 14.27 0.00 92 1004.4
20260507045718 8 22 0.0 0.0 0.25 14.27 0.00 92 1004.3
20260507045217 8 247 0.0 0.0 0.15 14.17 0.00 92 1004.4
20260507044717 8 270 0.0 0.0 0.15 14.17 0.00 92 1004.3
20260507044217 8 270 0.0 0.0 0.15 14.17 0.00 92 1004.2
20260507043716 8 135 0.0 0.0 0.15 14.17 0.00 92 1004.1
20260507043216 8 90 0.0 0.0 0.15 14.17 0.00 92 1004.0
20260507042716 8 202 0.0 0.0 0.10 14.12 0.00 92 1003.9
20260507042216 8 225 0.0 0.0 0.10 14.12 0.00 92 1003.9
20260507041715 8 292 0.0 0.0 0.10 14.12 0.00 92 1003.8
20260507041215 8 202 0.0 0.0 0.10 14.12 0.00 92 1003.6
20260507040715 8 270 0.0 0.0 0.10 14.07 0.00 92 1003.8
20260507040214 8 225 0.0 0.0 0.05 14.02 0.00 92 1003.8
20260507035714 8 270 0.0 0.0 0.05 14.02 0.00 92 1003.8
20260507035214 9 135 0.0 0.0 0.05 14.02 0.00 92 1003.6
20260507034714 9 22 0.0 0.0 0.05 14.02 0.00 92 1003.4
20260507034213 9 225 0.0 0.0 0.10 14.02 0.00 92 1003.5
20260507033713 9 270 0.0 0.0 0.10 14.02 0.00 92 1003.4
20260507033213 9 270 0.0 0.0 0.10 14.02 0.00 92 1003.3
20260507032712 9 67 0.0 0.0 0.10 14.02 0.00 92 1003.4
20260507032212 9 247 0.0 0.0 0.10 14.02 0.00 92 1003.5
20260507031712 9 202 0.0 0.0 0.10 14.02 0.00 92 1003.4
20260507031211 9 270 0.0 0.0 0.10 14.02 0.00 92 1003.4
20260507030711 9 0 0.0 0.0 0.05 13.97 0.00 92 1003.3
20260507030211 9 112 0.0 0.0 0.05 13.97 0.00 92 1003.3
20260507025711 9 112 0.0 0.0 0.05 13.97 0.00 92 1003.2
20260507025210 9 315 0.0 0.0 0.05 13.97 0.00 92 1003.1
20260507024710 9 247 0.0 0.0 0.05 13.97 0.00 92 1003.0
20260507024210 10 270 0.0 0.0 0.00 13.92 0.00 92 1003.1
20260507023709 10 247 0.0 0.0 0.00 13.92 0.00 91 1003.1
20260507023209 10 292 0.0 0.0 0.00 13.92 0.00 91 1003.3
20260507022709 10 270 0.0 0.0 0.00 13.92 0.00 91 1003.2
20260507022209 10 292 0.0 0.0 0.00 13.92 0.00 91 1003.1
20260507021708 10 67 0.0 0.0 0.00 13.92 0.00 91 1003.0
20260507021208 10 247 0.0 0.0 0.00 13.92 0.00 91 1003.0
20260507020708 10 292 0.0 0.0 0.00 13.92 0.00 91 1002.9
20260507020207 10 67 0.0 0.0 0.00 13.92 0.00 91 1002.9
20260507015707 10 247 0.0 0.0 0.00 13.92 0.00 91 1002.8
20260507015207 10 225 0.0 0.0 0.00 13.92 0.00 91 1002.7
20260507014707 10 270 0.0 0.0 0.00 13.92 0.00 91 1002.6
20260507014206 10 292 0.0 0.0 0.00 13.92 0.00 91 1002.6
20260507013706 10 292 0.0 0.0 0.00 13.92 0.00 91 1002.6
20260507013206 10 270 0.0 0.0 0.05 13.92 0.00 91 1002.8
20260507012705 10 202 0.0 0.0 0.05 13.92 0.00 91 1002.6
20260507012205 10 292 0.0 0.0 0.05 13.92 0.00 91 1002.7
20260507011705 11 270 0.0 0.0 0.05 13.92 0.00 91 1002.5
20260507011205 11 247 0.0 0.0 0.05 13.92 0.00 91 1002.5
20260507010704 11 112 0.0 0.0 0.05 13.92 0.00 91 1002.6
20260507010204 11 292 0.0 0.0 0.05 13.92 0.00 91 1002.5
20260507005704 11 292 0.0 0.0 0.05 13.92 0.00 91 1002.7
20260507005203 11 67 0.0 0.0 0.05 13.92 0.00 90 1002.7
20260507004703 11 67 0.0 0.0 0.05 13.92 0.00 90 1002.6
20260507004203 11 67 0.0 0.0 0.05 13.92 0.00 90 1002.5
20260507003703 11 45 0.0 0.0 0.05 13.92 0.00 90 1002.5
20260507003202 11 45 0.0 0.0 0.00 13.87 0.00 90 1002.5
20260507002702 10 45 0.0 0.0 0.00 13.87 0.00 90 1002.6
20260507002202 10 45 0.0 0.0 0.00 13.87 0.00 90 1002.6
20260507001701 10 45 0.0 0.0 0.00 13.87 0.00 90 1002.6
20260507001201 10 67 0.0 0.0 0.00 13.87 0.00 90 1002.5
20260507000701 10 67 0.0 0.0 0.00 13.87 0.00 90 1002.5
20260507000201 10 202 0.0 0.0 0.00 13.87 0.00 90 1002.6
20260506235700 10 202 0.0 0.0 0.00 13.87 0.00 90 1002.5
20260506235200 10 180 0.0 0.0 0.00 13.87 0.00 90 1002.4
20260506234700 10 180 0.0 0.0 0.00 13.87 0.00 90 1002.3
20260506234159 10 180 0.0 0.0 0.00 13.87 0.00 89 1002.5
20260506233659 10 180 0.0 0.0 0.00 13.87 0.00 89 1002.5
20260506233159 10 180 0.0 0.0 0.00 13.87 0.00 89 1002.5
20260506232658 10 180 0.0 0.0 0.00 13.87 0.00 89 1002.4
20260506232158 10 180 0.0 0.0 0.00 13.87 0.00 89 1002.5
20260506231658 10 180 0.0 0.0 0.00 13.87 0.00 89 1002.4
20260506231158 10 180 0.0 0.0 0.00 13.87 0.00 89 1002.3
20260506230657 10 180 0.0 0.0 0.00 13.87 0.00 89 1002.2
20260506230157 11 180 0.0 0.0 0.00 13.87 0.00 89 1002.2
20260506225657 11 180 0.0 0.0 0.00 13.92 0.00 89 1002.3
20260506225157 11 180 0.0 0.0 0.00 13.92 0.00 89 1002.3
20260506224656 11 180 0.0 0.0 0.00 13.92 0.00 89 1002.2
20260506224156 11 180 0.0 0.0 0.00 13.92 0.00 89 1002.3
20260506223656 10 180 0.0 0.0 0.00 13.92 0.00 89 1002.2
20260506223155 10 180 0.0 0.0 0.00 13.92 0.00 89 1002.3
20260506222655 10 180 0.0 0.0 0.00 13.92 0.00 89 1002.3
20260506222155 10 180 0.0 0.0 0.05 13.92 0.00 89 1002.2
20260506221654 10 180 0.0 0.0 0.05 13.92 0.00 89 1002.2
20260506221154 10 180 0.0 0.0 0.25 13.92 0.00 89 1002.3
20260506220654 11 180 0.0 0.0 0.30 13.92 0.00 89 1002.3
20260506220154 11 180 0.0 0.0 0.30 13.92 0.00 88 1002.1
20260506215653 11 180 0.0 0.0 0.30 14.02 0.00 88 1002.2
20260506215153 11 180 0.0 0.0 0.46 14.02 0.00 88 1002.2
20260506214653 11 180 0.0 0.0 0.51 14.02 0.00 88 1002.1
20260506214152 11 180 0.0 0.0 0.56 14.02 0.00 88 1002.2
20260506213652 11 180 0.0 0.0 0.56 14.02 0.00 88 1002.3
20260506213152 11 225 0.0 0.0 0.56 14.02 0.00 88 1002.2
20260506212652 11 225 0.0 0.0 0.51 13.97 0.00 88 1002.3
20260506212151 11 247 0.0 0.0 0.56 13.97 0.00 88 1002.2
20260506211651 11 247 0.0 0.0 0.46 13.87 0.00 88 1002.2
20260506211151 11 247 0.0 0.0 0.36 13.77 0.00 88 1002.2
20260506210650 11 270 0.0 0.0 0.30 13.72 0.00 87 1002.1
20260506210150 11 292 0.0 0.0 0.30 13.72 0.00 87 1002.1
20260506205650 11 270 0.0 0.0 0.36 13.97 0.00 86 1002.2
20260506205150 11 247 0.0 0.0 0.20 13.82 0.00 86 1002.1
20260506204649 11 270 0.0 0.0 0.10 13.72 0.00 86 1002.2
20260506204149 11 247 0.0 0.0 0.10 13.72 0.00 86 1002.3
20260506203649 11 225 0.0 0.0 0.10 13.72 0.00 85 1002.3
20260506203148 11 225 0.0 0.0 0.10 13.72 0.00 85 1002.3
20260506202648 11 225 0.0 0.0 0.05 13.67 0.00 85 1002.2
20260506202148 11 225 0.0 0.0 0.05 13.67 0.00 85 1002.3
20260506201648 11 202 0.0 0.0 0.05 13.67 0.00 84 1002.1
20260506201147 11 202 0.0 0.0 0.05 13.67 0.00 84 1002.1
20260506200647 11 270 0.0 0.0 0.05 13.67 0.00 84 1002.0
20260506200147 11 247 0.0 0.0 0.00 13.61 0.00 83 1001.8
20260506195646 11 270 0.0 0.0 0.00 14.22 0.00 82 1001.7
20260506195146 12 270 0.0 0.0 1.40 14.22 0.00 82 1001.7
20260506194646 12 270 0.0 0.0 1.40 14.22 0.00 82 1001.7
20260506194146 12 270 0.0 0.0 14.61 14.22 0.00 82 1001.7
20260506193645 12 67 0.0 0.0 14.61 14.22 0.00 82 1001.6
20260506193145 12 225 0.0 0.0 15.06 14.22 0.00 82 1001.7
20260506192645 12 135 0.0 0.0 15.06 14.22 0.00 83 1001.7
20260506192144 12 135 0.0 0.0 15.06 14.22 0.00 82 1001.4
20260506191644 12 90 0.0 0.0 15.06 14.22 0.00 82 1001.3
20260506191144 12 90 0.0 0.0 15.06 14.22 0.00 82 1001.2
20260506190644 12 90 0.0 0.0 15.06 14.22 0.00 83 1001.2
20260506190143 11 270 0.0 0.0 15.06 14.22 0.00 82 1001.1
20260506185143 11 270 0.0 0.0 13.67 16.00 0.00 83 1000.7
20260506184642 11 270 0.0 0.0 0.46 3.25 0.00 83 1000.7
20260506184142 11 247 0.0 0.0 0.46 3.25 0.00 82 1000.7
20260506183642 11 247 0.0 0.0 0.00 2.79 0.00 82 1000.5
20260506183142 11 202 0.0 0.0 0.00 2.79 0.00 82 1000.5
20260506182641 11 202 0.0 0.0 0.00 2.79 0.00 81 1000.5
20260506182141 11 180 0.0 0.0 0.00 2.79 0.00 81 1000.3
20260506181641 11 180 0.0 0.0 0.00 2.79 0.00 81 1000.4
20260506181140 11 180 0.0 0.0 0.00 2.79 0.00 80 1000.3
20260506180640 11 225 0.0 0.0 0.00 2.79 0.00 80 1000.3
20260506180140 11 225 0.0 0.0 0.00 2.79 0.00 78 1000.3
20260506175640 11 225 0.0 0.0 0.00 2.90 0.00 78 1000.3
20260506175139 12 270 0.0 0.0 0.00 2.90 0.00 77 1000.2
20260506174639 12 225 0.0 0.0 0.00 2.90 0.00 77 1000.2
20260506174139 12 225 0.0 0.0 0.00 2.90 0.00 75 1000.5
20260506173638 12 225 0.0 0.0 0.00 2.90 0.00 75 1000.5
20260506173138 12 225 0.0 3.2 0.00 2.90 0.00 73 1000.6
20260506172638 12 202 3.2 3.2 0.00 2.90 0.00 70 1000.5
20260506172138 13 225 3.2 6.4 0.00 2.90 0.00 67 1000.5
20260506171637 14 225 6.4 6.4 0.00 2.90 0.00 62 1000.5
20260506171137 15 202 0.0 0.0 0.00 2.90 0.00 59 1000.4
20260506170637 15 202 0.0 3.2 0.00 2.90 0.00 59 1000.3
20260506170136 16 292 3.2 8.0 0.00 2.90 0.00 59 1000.4
20260506165636 16 292 0.0 9.7 0.00 2.90 0.00 61 1000.6
20260506165136 16 270 0.0 0.0 0.00 2.90 0.00 60 1000.4
20260506164636 17 180 0.0 0.0 0.00 2.90 0.00 59 1000.1
20260506164135 17 225 0.0 3.2 0.00 2.90 0.00 58 1000.3
20260506163635 17 202 0.0 0.0 0.00 2.90 0.00 58 1000.2
20260506163135 17 225 0.0 0.0 0.00 2.90 0.00 57 1000.1
20260506162634 17 180 0.0 1.6 0.00 2.90 0.00 57 1000.2
20260506161634 18 225 0.0 0.0 0.00 2.90 0.00 55 1000.2
20260506161133 18 225 0.0 0.0 0.00 2.90 0.00 55 1000.2
20260506160633 18 90 0.0 4.8 0.00 2.90 0.00 55 1000.2
20260506160133 18 225 4.8 4.8 0.00 2.90 0.00 55 1000.1
20260506155633 18 292 0.0 3.2 0.00 2.90 0.00 54 1000.0
20260506155132 19 225 3.2 9.7 0.00 2.90 0.00 53 1000.0
20260506154632 19 247 0.0 8.0 0.00 2.90 0.00 53 1000.0
20260506154132 20 202 0.0 3.2 0.00 2.90 0.00 53 1000.1
20260506153631 20 202 0.0 0.0 0.00 2.90 0.00 53 1000.0
20260506153131 20 157 0.0 0.0 0.00 2.90 0.00 53 999.9
20260506152631 20 157 0.0 0.0 0.00 2.90 0.00 54 1000.0
20260506152131 19 225 0.0 6.4 0.00 2.90 0.00 54 999.9
20260506151630 19 112 6.4 6.4 0.00 2.90 0.00 54 1000.1
20260506151130 19 112 6.4 6.4 0.00 2.90 0.00 52 999.7
20260506150630 20 202 0.0 9.7 0.00 2.90 0.00 52 999.7
20260506150129 20 247 9.7 9.7 0.00 2.90 0.00 52 999.8
20260506145629 20 225 4.8 14.5 0.00 2.90 0.00 51 1000.0
20260506145129 21 225 14.5 14.5 0.00 2.90 0.00 49 1000.0
20260506144629 21 180 4.8 8.0 0.00 2.90 0.00 48 1000.2
20260506144128 22 180 0.0 9.7 0.00 2.90 0.00 47 999.9
20260506143628 22 247 9.7 9.7 0.00 2.90 0.00 47 999.9
20260506143128 22 202 3.2 4.8 0.00 2.90 0.00 47 1000.0
20260506142627 22 157 0.0 4.8 0.00 2.90 0.00 48 999.9
20260506142127 21 112 4.8 4.8 0.00 2.90 0.00 48 1000.0
20260506141627 21 157 0.0 4.8 0.00 2.90 0.00 47 1000.0
20260506141127 22 202 4.8 4.8 0.00 2.90 0.00 46 999.9
20260506140626 22 225 0.0 9.7 0.00 2.90 0.00 45 1000.0
20260506140126 23 112 9.7 9.7 0.00 2.90 0.00 44 1000.1
20260506135626 23 90 6.4 6.4 0.00 2.90 0.00 44 1000.1
20260506135125 23 225 0.0 3.2 0.00 2.90 0.00 44 1000.1
20260506134625 22 225 0.0 8.0 0.00 2.90 0.00 44 1000.0
20260506134125 23 180 8.0 8.0 0.00 2.90 0.00 46 1000.1
20260506133625 23 157 8.0 8.0 0.00 2.90 0.00 46 1000.2
20260506133124 23 225 0.0 6.4 0.00 2.90 0.00 44 1000.1
20260506132624 23 202 6.4 6.4 0.00 2.90 0.00 45 1000.1
20260506132124 23 225 0.0 9.7 0.00 2.90 0.00 46 1000.1
20260506131623 23 225 9.7 9.7 0.00 2.90 0.00 45 1000.4
20260506131123 23 180 4.8 4.8 0.00 2.90 0.00 47 1000.2
20260506130623 22 202 0.0 4.8 0.00 2.90 0.00 47 1000.2
20260506130123 22 247 1.6 1.6 0.00 2.90 0.00 48 1000.2
20260506125622 21 247 0.0 0.0 0.00 2.90 0.00 49 1000.3
20260506125122 21 225 0.0 3.2 0.00 2.90 0.00 49 1000.4
20260506124622 21 270 3.2 6.4 0.00 2.90 0.00 48 1000.4
20260506124121 22 225 6.4 6.4 0.00 2.90 0.00 48 1000.4
20260506123621 21 180 0.0 12.9 0.00 2.90 0.00 48 1000.4
20260506123121 22 180 12.9 16.1 0.00 2.90 0.00 47 1000.4
20260506122621 22 225 16.1 16.1 0.00 2.90 0.00 47 1000.4
20260506122120 22 225 12.9 12.9 0.00 2.90 0.00 48 1000.4
20260506121620 21 270 12.9 12.9 0.00 2.90 0.00 47 1000.2
20260506121120 22 270 12.9 12.9 0.00 2.90 0.00 47 1000.1
20260506120619 22 270 8.0 8.0 0.00 2.90 0.00 48 1000.2
20260506120119 22 180 0.0 3.2 0.00 2.90 0.00 49 1000.2
20260506115619 22 202 0.0 6.4 0.00 2.90 0.00 49 1000.3
20260506115119 22 225 4.8 6.4 0.00 2.90 0.00 49 1000.4
20260506114618 21 202 6.4 6.4 0.00 2.90 0.00 51 1000.4
20260506114118 21 270 6.4 8.0 0.00 2.90 0.00 50 1000.2
20260506113618 21 270 6.4 6.4 0.00 2.90 0.00 52 1000.2
20260506113117 20 202 0.0 3.2 0.00 2.90 0.00 55 1000.3
20260506112617 20 247 0.0 4.8 0.00 2.90 0.00 56 1000.4
20260506112117 20 247 3.2 3.2 0.00 2.90 0.00 57 1000.5
20260506111617 18 270 0.0 8.0 0.00 2.90 0.00 57 1000.7
20260506111116 19 225 8.0 8.0 0.00 2.90 0.00 56 1000.5
20260506110616 20 247 4.8 9.7 0.00 2.90 0.00 55 1000.6
20260506110116 20 202 3.2 4.8 0.00 2.90 0.00 56 1000.6
20260506105615 19 270 4.8 4.8 0.00 2.90 0.00 56 1000.5
20260506105115 19 202 3.2 11.3 0.00 2.90 0.00 55 1000.6
20260506104615 20 180 4.8 9.7 0.00 2.90 0.00 57 1000.6
20260506104115 20 225 0.0 3.2 0.00 2.90 0.00 57 1000.4
20260506103614 19 135 3.2 6.4 0.00 2.90 0.00 59 1000.5
20260506103114 18 202 1.6 4.8 0.00 2.90 0.00 61 1000.6
20260506102614 17 112 0.0 0.0 0.00 2.90 0.00 64 1000.6
20260506102113 17 247 0.0 3.2 0.00 2.90 0.00 64 1000.7
20260506101613 17 202 0.0 12.9 0.00 2.90 0.00 64 1000.8
20260506101113 17 247 12.9 12.9 0.00 2.90 0.00 64 1000.8
20260506100613 16 225 0.0 0.0 0.00 2.90 0.00 63 1000.8
20260506100112 17 202 0.0 0.0 0.00 2.90 0.00 64 1000.9
20260506095612 17 202 0.0 0.0 0.00 2.90 0.00 62 1001.1
20260506095112 17 270 0.0 3.2 0.00 2.90 0.00 62 1001.0
20260506094611 17 247 0.0 4.8 0.00 2.90 0.00 62 1000.9
20260506094111 17 180 4.8 4.8 0.00 2.90 0.00 61 1000.9
20260506093611 18 270 4.8 9.7 0.00 2.90 0.00 60 1000.8
20260506093111 18 225 9.7 11.3 0.00 2.90 0.00 59 1000.8
20260506092610 19 202 11.3 11.3 0.00 2.90 0.00 59 1000.6
20260506092110 19 202 11.3 11.3 0.00 2.90 0.00 59 1000.6
20260506091610 19 202 0.0 6.4 0.00 2.90 0.00 59 1000.5
20260506091109 18 157 0.0 6.4 0.00 2.90 0.00 61 1000.6
20260506090609 18 225 0.0 0.0 0.00 2.90 0.00 62 1000.5
20260506090109 17 225 0.0 9.7 0.00 2.90 0.00 62 1000.3
20260506085608 17 225 3.2 3.2 0.00 2.90 0.00 64 1000.3
20260506085108 17 225 0.0 9.7 0.00 2.90 0.00 64 1000.2
20260506084608 17 225 9.7 9.7 0.00 2.90 0.00 66 1000.3
20260506084108 17 247 4.8 8.0 0.00 2.90 0.00 66 1000.3
20260506083607 16 225 6.4 8.0 0.00 2.90 0.00 67 1000.2
20260506083107 16 202 8.0 8.0 0.00 2.90 0.00 67 1000.2
20260506082607 16 202 6.4 11.3 0.00 2.90 0.00 66 1000.2